Time;durP1;ratioP1;P1;durP2;ratioP2;P2;SDS_P1;SDS_P2;PMS_P1;PMS_P2;Temp;Humidity;BMP_temperature;BMP_pressure;BME280_temperature;BME280_humidity;BME280_pressure;Samples;Min_cycle;Max_cycle;Signal;HPM_P1;HPM_P2
2022/03/17 00:00:15;;;;;;;0.30;0.30;;;9.90;97.80;;;;;;5054069;28;20200;-71
2022/03/17 00:02:41;;;;;;;0.40;0.40;;;9.80;97.30;;;;;;5054053;28;20171;-72
2022/03/17 00:05:10;;;;;;;0.30;0.30;;;9.80;97.20;;;;;;5054306;28;20211;-72
2022/03/17 00:07:41;;;;;;;0.40;0.40;;;9.70;97.50;;;;;;5054265;28;20192;-71
2022/03/17 00:10:14;;;;;;;0.30;0.30;;;9.80;97.60;;;;;;5054043;28;20169;-70
2022/03/17 00:12:40;;;;;;;0.30;0.30;;;9.70;97.50;;;;;;5054210;28;20196;-73
2022/03/17 00:15:06;;;;;;;0.30;0.30;;;9.70;98.00;;;;;;5054032;28;20275;-72
2022/03/17 00:17:32;;;;;;;0.40;0.40;;;9.70;97.90;;;;;;5053946;28;20589;-72
2022/03/17 00:19:58;;;;;;;0.30;0.30;;;9.70;97.60;;;;;;5053798;28;20211;-71
2022/03/17 00:22:24;;;;;;;0.30;0.30;;;9.70;97.50;;;;;;5053940;28;20437;-70
2022/03/17 00:24:49;;;;;;;0.30;0.30;;;9.70;97.60;;;;;;5053725;28;20270;-70
2022/03/17 00:27:15;;;;;;;0.30;0.30;;;9.80;97.60;;;;;;5053642;28;20283;-74
2022/03/17 00:29:41;;;;;;;0.30;0.30;;;9.80;97.70;;;;;;5053853;28;20398;-70
2022/03/17 00:32:08;;;;;;;0.30;0.30;;;9.70;97.60;;;;;;5053504;28;20196;-70
2022/03/17 00:35:35;;;;;;;0.40;0.40;;;9.70;97.50;;;;;;5053848;28;20177;-70
2022/03/17 00:37:20;;;;;;;0.30;0.30;;;9.70;97.50;;;;;;5053501;28;20200;-70
2022/03/17 00:39:46;;;;;;;0.30;0.30;;;9.70;97.80;;;;;;5053816;28;20652;-73
2022/03/17 00:42:11;;;;;;;1.17;0.97;;;9.70;98.00;;;;;;5053574;28;20430;-73
2022/03/17 00:44:37;;;;;;;0.30;0.30;;;9.60;98.50;;;;;;5053691;28;20162;-73
2022/03/17 00:47:03;;;;;;;0.30;0.30;;;9.70;98.70;;;;;;5053611;28;20193;-72
2022/03/17 00:49:29;;;;;;;0.30;0.30;;;9.70;98.70;;;;;;5053729;28;20630;-73
2022/03/17 00:51:54;;;;;;;0.30;0.30;;;9.80;98.40;;;;;;5052157;28;20917;-72
2022/03/17 00:54:20;;;;;;;0.40;0.40;;;9.80;98.40;;;;;;5053424;28;20306;-70
2022/03/17 00:56:45;;;;;;;0.40;0.40;;;9.80;98.00;;;;;;5053263;28;20192;-71
2022/03/17 00:59:12;;;;;;;0.30;0.30;;;9.80;97.60;;;;;;5053345;28;20548;-72
2022/03/17 01:01:38;;;;;;;0.30;0.30;;;9.80;97.60;;;;;;5053084;28;20195;-70
2022/03/17 01:04:03;;;;;;;0.30;0.30;;;9.80;97.40;;;;;;5053281;28;20255;-70
2022/03/17 01:06:29;;;;;;;0.30;0.30;;;9.70;97.50;;;;;;5053204;28;20205;-70
2022/03/17 01:08:54;;;;;;;0.67;0.67;;;9.60;98.30;;;;;;5056876;28;20181;-70
2022/03/17 01:11:20;;;;;;;0.30;0.30;;;9.70;98.40;;;;;;5059670;28;20645;-73
2022/03/17 01:13:46;;;;;;;0.30;0.30;;;9.70;98.10;;;;;;5058518;28;20179;-71
2022/03/17 01:16:11;;;;;;;1.47;1.37;;;9.70;98.20;;;;;;5059775;28;20222;-70
2022/03/17 01:18:37;;;;;;;0.30;0.30;;;9.80;98.60;;;;;;5059939;28;20254;-72
2022/03/17 01:21:03;;;;;;;0.30;0.30;;;9.80;98.30;;;;;;5059656;28;20168;-70
2022/03/17 01:23:28;;;;;;;0.40;0.40;;;9.80;98.10;;;;;;5059984;28;20587;-71
2022/03/17 01:25:54;;;;;;;0.30;0.30;;;9.80;98.30;;;;;;5059583;28;20200;-71
2022/03/17 01:28:20;;;;;;;0.30;0.30;;;9.80;98.40;;;;;;5059910;28;20528;-70
2022/03/17 01:30:45;;;;;;;0.30;0.30;;;9.80;98.10;;;;;;5059436;28;20176;-72
2022/03/17 01:33:11;;;;;;;0.30;0.30;;;9.90;98.00;;;;;;5059776;28;20653;-73
2022/03/17 01:35:37;;;;;;;0.30;0.30;;;9.90;97.80;;;;;;5059637;28;20184;-73
2022/03/17 01:38:02;;;;;;;0.30;0.30;;;9.80;97.80;;;;;;5059683;28;20255;-73
2022/03/17 01:40:28;;;;;;;0.40;0.40;;;9.80;97.90;;;;;;5059554;28;20172;-71
2022/03/17 01:42:54;;;;;;;0.30;0.30;;;9.80;97.80;;;;;;5059655;28;20515;-73
2022/03/17 01:45:20;;;;;;;0.30;0.30;;;9.80;97.90;;;;;;5059898;28;20192;-73
2022/03/17 01:47:46;;;;;;;0.30;0.30;;;9.80;97.70;;;;;;5059641;28;20196;-71
2022/03/17 01:50:14;;;;;;;0.30;0.30;;;9.80;97.80;;;;;;5059356;28;20263;-73
2022/03/17 01:52:41;;;;;;;0.70;0.70;;;9.70;97.80;;;;;;5059801;28;20159;-73
2022/03/17 01:55:09;;;;;;;0.40;0.40;;;9.60;98.00;;;;;;5059367;28;20696;-72
2022/03/17 01:57:35;;;;;;;0.40;0.40;;;9.50;98.00;;;;;;5059495;28;20173;-69
2022/03/17 02:00:04;;;;;;;0.30;0.30;;;9.50;98.00;;;;;;5059437;28;20178;-72
2022/03/17 02:02:30;;;;;;;0.30;0.30;;;9.50;98.00;;;;;;5059493;28;20279;-69
2022/03/17 02:04:55;;;;;;;0.30;0.30;;;9.50;98.10;;;;;;5059522;28;20223;-72
2022/03/17 02:07:22;;;;;;;0.30;0.30;;;9.50;98.10;;;;;;5059342;28;20204;-73
2022/03/17 02:09:48;;;;;;;0.30;0.30;;;9.60;98.00;;;;;;5059539;28;20525;-73
2022/03/17 02:15:04;;;;;;;0.30;0.30;;;9.70;98.00;;;;;;5059731;28;20204;-70
2022/03/17 02:17:31;;;;;;;0.30;0.30;;;9.70;98.00;;;;;;5059357;28;20172;-73
2022/03/17 02:20:02;;;;;;;0.30;0.30;;;9.70;98.00;;;;;;5057351;28;20533;-72
2022/03/17 02:22:29;;;;;;;0.30;0.30;;;9.70;97.90;;;;;;5056087;28;20635;-70
2022/03/17 02:27:46;;;;;;;0.45;0.45;;;9.40;98.30;;;;;;5056010;28;20218;-72
2022/03/17 02:30:16;;;;;;;0.30;0.30;;;9.50;98.30;;;;;;5056005;28;20173;-72
2022/03/17 02:32:42;;;;;;;0.30;0.30;;;9.40;98.10;;;;;;5055937;28;20168;-70
2022/03/17 02:35:11;;;;;;;0.30;0.30;;;9.40;98.20;;;;;;5056052;28;20265;-73
2022/03/17 02:37:37;;;;;;;0.32;0.32;;;9.40;98.10;;;;;;5055850;28;20547;-69
2022/03/17 02:40:06;;;;;;;2.10;0.80;;;9.40;98.10;;;;;;5055995;28;20167;-72
2022/03/17 02:42:32;;;;;;;0.50;0.50;;;9.40;98.30;;;;;;5055513;28;20680;-73
2022/03/17 02:44:59;;;;;;;0.30;0.30;;;9.50;98.10;;;;;;5055798;28;20288;-70
2022/03/17 02:47:26;;;;;;;0.30;0.30;;;9.50;97.90;;;;;;5055603;28;20192;-73
2022/03/17 02:49:54;;;;;;;0.30;0.30;;;9.50;97.90;;;;;;5055655;28;20182;-73
2022/03/17 02:52:21;;;;;;;0.30;0.30;;;9.50;97.70;;;;;;5055604;28;20168;-72
2022/03/17 02:54:46;;;;;;;0.30;0.30;;;9.50;97.60;;;;;;5055576;28;20180;-71
2022/03/17 02:57:12;;;;;;;0.30;0.30;;;9.50;97.70;;;;;;5055536;28;20223;-70
2022/03/17 02:59:38;;;;;;;0.30;0.30;;;9.50;97.90;;;;;;5055587;28;20168;-71
2022/03/17 03:02:04;;;;;;;0.30;0.30;;;9.50;97.90;;;;;;5055171;28;20193;-74
2022/03/17 03:04:33;;;;;;;0.30;0.30;;;9.50;97.90;;;;;;5055352;28;20174;-73
2022/03/17 03:06:59;;;;;;;0.40;0.40;;;9.50;97.90;;;;;;5055206;28;20204;-71
2022/03/17 03:09:24;;;;;;;0.30;0.30;;;9.40;97.70;;;;;;5055376;28;20536;-73
2022/03/17 03:11:50;;;;;;;0.30;0.30;;;9.40;98.00;;;;;;5055228;28;20202;-72
2022/03/17 03:14:15;;;;;;;0.30;0.30;;;9.40;97.80;;;;;;5055134;28;20596;-71
2022/03/17 03:16:41;;;;;;;1.53;0.83;;;9.40;97.70;;;;;;5055074;28;20196;-73
2022/03/17 03:19:07;;;;;;;0.30;0.30;;;9.40;97.70;;;;;;5055280;28;20172;-71
2022/03/17 03:21:33;;;;;;;0.50;0.50;;;9.30;97.90;;;;;;5055118;28;20168;-70
2022/03/17 03:23:58;;;;;;;0.30;0.30;;;9.30;98.40;;;;;;5055080;28;20179;-71
2022/03/17 03:26:26;;;;;;;0.30;0.30;;;9.30;98.50;;;;;;5054956;28;20470;-71
2022/03/17 03:28:52;;;;;;;1.63;1.52;;;9.40;98.40;;;;;;5054862;28;20678;-70
2022/03/17 03:31:18;;;;;;;0.63;0.63;;;9.40;98.40;;;;;;5054006;28;20206;-71
2022/03/17 03:33:43;;;;;;;0.30;0.30;;;9.50;98.50;;;;;;5054548;28;20204;-71
2022/03/17 03:38:53;;;;;;;0.30;0.30;;;9.60;98.60;;;;;;5054662;28;20184;-70
2022/03/17 03:41:19;;;;;;;0.30;0.30;;;9.50;98.30;;;;;;5054457;28;20180;-70
2022/03/17 03:43:44;;;;;;;0.40;0.40;;;9.40;98.50;;;;;;5054575;28;20251;-72
2022/03/17 03:46:10;;;;;;;0.30;0.30;;;9.40;98.50;;;;;;5054413;28;20209;-70
2022/03/17 03:48:38;;;;;;;1.95;1.25;;;9.40;98.20;;;;;;5054562;28;20505;-71
2022/03/17 03:51:04;;;;;;;0.30;0.30;;;9.40;98.10;;;;;;5054262;28;20171;-69
2022/03/17 03:54:14;;;;;;;0.30;0.30;;;9.40;98.10;;;;;;5054878;28;20533;-71
2022/03/17 03:56:15;;;;;;;0.30;0.30;;;9.40;98.20;;;;;;5054179;28;20229;-73
2022/03/17 03:58:41;;;;;;;0.40;0.40;;;9.30;98.20;;;;;;5054516;28;20184;-73
2022/03/17 04:01:06;;;;;;;0.40;0.40;;;9.40;98.20;;;;;;5054098;28;20199;-69
2022/03/17 04:03:32;;;;;;;0.30;0.30;;;9.40;98.10;;;;;;5054413;28;20177;-71
2022/03/17 04:05:58;;;;;;;0.30;0.30;;;9.40;98.20;;;;;;5054072;28;20580;-70
2022/03/17 04:08:24;;;;;;;0.30;0.30;;;9.40;98.40;;;;;;5054127;28;20559;-70
2022/03/17 04:10:49;;;;;;;0.40;0.40;;;9.40;98.60;;;;;;5053757;28;20178;-73
2022/03/17 04:13:15;;;;;;;0.30;0.30;;;9.40;98.40;;;;;;5054151;28;20171;-72
2022/03/17 04:15:41;;;;;;;0.30;0.30;;;9.20;98.10;;;;;;5054047;28;20187;-73
2022/03/17 04:18:07;;;;;;;0.30;0.30;;;9.10;98.40;;;;;;5054000;28;20220;-71
2022/03/17 04:20:33;;;;;;;0.30;0.30;;;9.10;98.60;;;;;;5054045;28;20403;-73
2022/03/17 04:22:58;;;;;;;0.30;0.30;;;9.20;98.60;;;;;;5054109;28;20176;-73
2022/03/17 04:25:24;;;;;;;0.30;0.30;;;9.20;98.60;;;;;;5054184;28;20922;-71
2022/03/17 04:27:50;;;;;;;0.30;0.30;;;9.30;98.70;;;;;;5053733;28;20204;-71
2022/03/17 04:30:16;;;;;;;0.30;0.30;;;9.30;98.50;;;;;;5053678;28;20197;-70
2022/03/17 04:32:41;;;;;;;0.40;0.40;;;9.40;98.50;;;;;;5054123;28;20399;-70
2022/03/17 04:35:07;;;;;;;0.40;0.40;;;9.40;98.30;;;;;;5053835;28;20234;-71
2022/03/17 04:37:33;;;;;;;0.30;0.30;;;9.30;98.90;;;;;;5053590;28;20210;-72
2022/03/17 04:39:58;;;;;;;0.30;0.30;;;9.30;98.80;;;;;;5053489;28;20415;-70
2022/03/17 04:42:24;;;;;;;0.40;0.40;;;9.30;98.50;;;;;;5053530;28;20467;-73
2022/03/17 04:44:51;;;;;;;0.30;0.30;;;9.30;98.50;;;;;;5053207;28;20701;-71
2022/03/17 04:47:18;;;;;;;0.40;0.40;;;9.40;98.40;;;;;;5053463;28;20571;-70
2022/03/17 04:49:44;;;;;;;0.33;0.33;;;9.40;98.30;;;;;;5053575;28;20256;-72
2022/03/17 04:53:27;;;;;;;0.40;0.40;;;9.40;98.20;;;;;;5052303;28;20190;-70
2022/03/17 04:54:55;;;;;;;0.30;0.30;;;9.40;98.10;;;;;;5052467;28;20191;-71
2022/03/17 04:57:24;;;;;;;0.30;0.30;;;9.40;98.20;;;;;;5053028;28;20180;-71
2022/03/17 04:59:50;;;;;;;0.30;0.30;;;9.40;98.20;;;;;;5053373;28;20531;-71
2022/03/17 05:02:15;;;;;;;0.30;0.30;;;9.40;98.10;;;;;;5053114;28;20181;-71
2022/03/17 05:04:41;;;;;;;0.30;0.30;;;9.40;98.10;;;;;;5053207;28;20773;-70
2022/03/17 05:07:07;;;;;;;0.33;0.33;;;9.40;98.10;;;;;;5053192;28;20566;-73
2022/03/17 05:09:33;;;;;;;0.30;0.30;;;9.40;98.10;;;;;;5053269;28;20202;-72
2022/03/17 05:11:58;;;;;;;0.30;0.30;;;9.40;98.20;;;;;;5051935;28;20175;-71
2022/03/17 05:14:24;;;;;;;0.30;0.30;;;9.40;98.30;;;;;;5053391;28;20743;-70
2022/03/17 05:16:50;;;;;;;0.30;0.30;;;9.20;98.60;;;;;;5053833;28;20642;-70
2022/03/17 05:19:15;;;;;;;0.30;0.30;;;9.00;98.40;;;;;;5053249;28;20172;-72
2022/03/17 05:21:41;;;;;;;0.30;0.30;;;8.90;98.90;;;;;;5053018;28;20263;-71
2022/03/17 05:24:06;;;;;;;0.40;0.40;;;9.00;99.10;;;;;;5053379;28;20171;-72
2022/03/17 05:26:33;;;;;;;0.40;0.40;;;9.00;98.80;;;;;;5052814;28;20219;-73
2022/03/17 05:28:58;;;;;;;0.30;0.30;;;8.90;98.90;;;;;;5053079;28;20172;-72
2022/03/17 05:31:24;;;;;;;0.97;0.67;;;9.00;98.90;;;;;;5052874;28;20195;-70
2022/03/17 05:33:50;;;;;;;0.30;0.30;;;9.00;98.80;;;;;;5053234;28;20629;-72
2022/03/17 05:36:15;;;;;;;0.30;0.30;;;9.10;98.70;;;;;;5053145;28;20556;-72
2022/03/17 05:38:41;;;;;;;0.40;0.40;;;9.00;98.80;;;;;;5051660;28;20184;-73
2022/03/17 05:41:06;;;;;;;0.70;0.70;;;9.00;98.80;;;;;;5052874;28;20171;-73
2022/03/17 05:43:32;;;;;;;0.40;0.40;;;9.00;98.80;;;;;;5053076;28;20171;-71
2022/03/17 05:45:58;;;;;;;0.30;0.30;;;9.00;98.70;;;;;;5052802;28;20242;-70
2022/03/17 05:48:24;;;;;;;0.30;0.30;;;9.00;98.60;;;;;;5053099;28;20164;-72
2022/03/17 05:50:50;;;;;;;0.30;0.30;;;8.90;98.70;;;;;;5052932;28;20173;-70
2022/03/17 05:53:15;;;;;;;0.30;0.30;;;8.90;98.80;;;;;;5052970;28;20251;-71
2022/03/17 05:55:41;;;;;;;0.30;0.30;;;9.00;98.80;;;;;;5054480;28;20728;-71
2022/03/17 05:58:07;;;;;;;0.30;0.30;;;8.90;98.70;;;;;;5056638;28;20216;-70
2022/03/17 06:00:35;;;;;;;0.30;0.30;;;8.80;98.80;;;;;;5056592;28;20426;-73
2022/03/17 06:03:00;;;;;;;0.30;0.30;;;8.80;98.90;;;;;;5056454;28;20262;-72
2022/03/17 06:05:28;;;;;;;0.30;0.30;;;8.90;98.90;;;;;;5056453;28;20239;-72
2022/03/17 06:07:57;;;;;;;0.30;0.30;;;9.00;98.80;;;;;;5056335;28;20505;-71
2022/03/17 06:10:25;;;;;;;0.63;0.63;;;9.00;98.80;;;;;;5056360;28;20187;-71
2022/03/17 06:12:52;;;;;;;0.40;0.40;;;9.00;98.80;;;;;;5056529;28;20171;-73
2022/03/17 06:15:19;;;;;;;0.40;0.40;;;9.10;98.80;;;;;;5056376;28;20315;-73
2022/03/17 06:17:49;;;;;;;0.40;0.40;;;9.10;98.70;;;;;;5056748;28;20177;-72
2022/03/17 06:20:20;;;;;;;0.30;0.30;;;9.10;98.80;;;;;;5056118;28;20192;-72
2022/03/17 06:22:49;;;;;;;0.30;0.30;;;9.20;99.00;;;;;;5056324;28;20179;-71
2022/03/17 06:25:17;;;;;;;0.30;0.30;;;9.40;99.10;;;;;;5056091;28;20207;-71
2022/03/17 06:27:44;;;;;;;0.30;0.30;;;9.40;98.90;;;;;;5055495;28;20270;-77
2022/03/17 06:30:15;;;;;;;0.30;0.30;;;9.50;98.90;;;;;;5054544;28;20186;-78
2022/03/17 06:32:42;;;;;;;0.30;0.30;;;9.60;98.80;;;;;;5056195;28;20173;-73
2022/03/17 06:35:14;;;;;;;0.30;0.30;;;9.70;98.50;;;;;;5054732;28;20193;-74
2022/03/17 06:37:41;;;;;;;0.40;0.40;;;9.70;98.40;;;;;;5054689;28;20260;-73
2022/03/17 06:40:07;;;;;;;0.30;0.30;;;9.90;98.40;;;;;;5055086;28;20260;-71
2022/03/17 06:42:34;;;;;;;0.30;0.30;;;10.00;97.60;;;;;;5055675;28;20633;-72
2022/03/17 06:45:00;;;;;;;0.32;0.32;;;10.10;97.20;;;;;;5054470;28;20292;-70
2022/03/17 06:47:25;;;;;;;0.30;0.30;;;10.00;96.50;;;;;;5055844;28;20249;-72
2022/03/17 06:49:51;;;;;;;0.30;0.30;;;9.90;97.30;;;;;;5055732;28;20184;-71
2022/03/17 06:52:17;;;;;;;0.30;0.30;;;9.90;97.20;;;;;;5054158;28;20267;-70
2022/03/17 06:54:43;;;;;;;0.30;0.30;;;9.90;97.00;;;;;;5054643;28;20168;-71
2022/03/17 06:57:09;;;;;;;0.30;0.30;;;10.00;96.60;;;;;;5054932;28;20184;-70
2022/03/17 06:59:34;;;;;;;4.47;1.43;;;10.10;96.40;;;;;;5055744;28;20486;-70
2022/03/17 07:02:00;;;;;;;0.30;0.30;;;10.20;96.30;;;;;;5054956;28;20185;-73
2022/03/17 07:04:26;;;;;;;0.30;0.30;;;10.30;96.40;;;;;;5055415;28;20700;-72
2022/03/17 07:06:51;;;;;;;0.30;0.30;;;10.50;96.40;;;;;;5054835;28;20756;-70
2022/03/17 07:09:17;;;;;;;0.30;0.30;;;10.60;96.10;;;;;;5055518;28;20184;-72
2022/03/17 07:11:44;;;;;;;0.40;0.40;;;10.80;95.70;;;;;;5055049;28;20194;-70
2022/03/17 07:14:10;;;;;;;0.35;0.35;;;10.80;95.80;;;;;;5055275;28;20255;-69
2022/03/17 07:16:36;;;;;;;0.30;0.30;;;11.00;95.70;;;;;;5055259;28;20201;-73
2022/03/17 07:19:02;;;;;;;0.30;0.30;;;11.30;95.10;;;;;;5055337;28;20178;-74
2022/03/17 07:21:28;;;;;;;0.30;0.30;;;11.40;94.50;;;;;;5055477;28;20570;-76
2022/03/17 07:23:54;;;;;;;0.30;0.30;;;11.50;94.40;;;;;;5055480;28;20332;-77
2022/03/17 07:26:20;;;;;;;0.30;0.30;;;11.60;94.20;;;;;;5054807;28;20233;-76
2022/03/17 07:28:46;;;;;;;0.30;0.30;;;11.60;94.20;;;;;;5055053;28;20163;-75
2022/03/17 07:31:12;;;;;;;0.30;0.30;;;11.60;94.70;;;;;;5054882;28;20174;-75
2022/03/17 07:33:37;;;;;;;0.30;0.30;;;11.80;94.50;;;;;;5055118;28;20158;-76
2022/03/17 07:36:06;;;;;;;0.30;0.30;;;11.80;93.80;;;;;;5055132;28;20210;-76
2022/03/17 07:38:32;;;;;;;0.30;0.30;;;11.90;94.00;;;;;;5055043;28;20178;-76
2022/03/17 07:40:57;;;;;;;0.30;0.30;;;12.00;93.90;;;;;;5054660;28;20599;-75
2022/03/17 07:43:23;;;;;;;0.40;0.40;;;12.20;93.80;;;;;;5054670;28;20245;-75
2022/03/17 07:45:49;;;;;;;0.30;0.30;;;12.20;93.40;;;;;;5054486;28;20270;-76
2022/03/17 07:48:15;;;;;;;0.63;0.60;;;12.20;93.50;;;;;;5054751;28;20412;-74
2022/03/17 07:50:41;;;;;;;0.73;0.73;;;12.20;93.60;;;;;;5054507;28;20296;-76
2022/03/17 07:53:06;;;;;;;3.43;3.13;;;12.20;93.90;;;;;;5054673;28;20178;-73
2022/03/17 07:55:33;;;;;;;0.30;0.30;;;12.40;93.50;;;;;;5054416;28;20285;-77
2022/03/17 07:58:00;;;;;;;3.70;1.02;;;12.50;93.50;;;;;;5054426;28;20530;-75
2022/03/17 08:00:26;;;;;;;1.67;1.67;;;12.50;93.20;;;;;;5054278;28;20557;-76
2022/03/17 08:02:51;;;;;;;0.30;0.30;;;12.70;93.00;;;;;;5053707;28;20174;-77
2022/03/17 08:05:17;;;;;;;0.30;0.30;;;12.80;92.00;;;;;;5052871;28;20272;-76
2022/03/17 08:07:43;;;;;;;0.40;0.40;;;12.80;92.00;;;;;;5054148;28;20251;-75
2022/03/17 08:10:10;;;;;;;0.30;0.30;;;12.70;92.50;;;;;;5052590;28;20277;-77
2022/03/17 08:12:36;;;;;;;0.30;0.30;;;12.80;92.80;;;;;;5052686;28;20170;-77
2022/03/17 08:15:05;;;;;;;0.30;0.30;;;12.90;93.10;;;;;;5054093;28;20201;-73
2022/03/17 08:17:31;;;;;;;1.03;0.77;;;13.10;92.40;;;;;;5053633;28;20181;-77
2022/03/17 08:19:57;;;;;;;0.30;0.30;;;13.30;92.10;;;;;;5053680;28;20428;-74
2022/03/17 08:22:24;;;;;;;0.47;0.47;;;13.60;91.30;;;;;;5054314;28;20893;-75
2022/03/17 08:24:56;;;;;;;0.40;0.40;;;14.00;91.30;;;;;;5053818;28;20408;-77
2022/03/17 08:27:21;;;;;;;0.30;0.30;;;14.30;90.80;;;;;;5053903;28;20444;-75
2022/03/17 08:29:48;;;;;;;0.30;0.30;;;14.70;89.70;;;;;;5052620;28;20495;-74
2022/03/17 08:32:14;;;;;;;0.30;0.30;;;15.10;88.80;;;;;;5053346;28;20167;-77
2022/03/17 08:34:39;;;;;;;0.30;0.30;;;15.50;87.70;;;;;;5053635;28;20503;-74
2022/03/17 08:37:05;;;;;;;0.40;0.40;;;15.90;86.30;;;;;;5052038;28;20448;-75
2022/03/17 08:39:31;;;;;;;0.30;0.30;;;16.50;84.50;;;;;;5053572;28;20236;-76
2022/03/17 08:41:57;;;;;;;0.60;0.60;;;17.00;82.10;;;;;;5053860;28;20212;-75
2022/03/17 08:44:23;;;;;;;0.40;0.40;;;17.60;79.10;;;;;;5051677;28;20442;-76
2022/03/17 08:49:33;;;;;;;0.30;0.30;;;18.90;74.80;;;;;;5053263;28;20396;-75
2022/03/17 08:52:01;;;;;;;0.53;0.53;;;19.00;71.60;;;;;;5051752;28;20898;-74
2022/03/17 08:54:28;;;;;;;0.60;0.60;;;19.00;71.60;;;;;;5053738;28;20462;-76
2022/03/17 08:57:01;;;;;;;0.40;0.40;;;19.60;70.90;;;;;;5052310;28;20427;-74
2022/03/17 08:59:30;;;;;;;0.93;0.93;;;19.80;68.00;;;;;;5052640;28;20408;-77
2022/03/17 09:02:03;;;;;;;0.93;0.77;;;19.50;67.70;;;;;;5053402;28;20424;-74
2022/03/17 09:04:29;;;;;;;0.37;0.37;;;20.20;66.80;;;;;;5051618;28;21040;-73
2022/03/17 09:06:59;;;;;;;0.70;0.70;;;20.90;64.00;;;;;;5052787;28;20598;-73
2022/03/17 09:09:28;;;;;;;0.70;0.70;;;21.10;61.20;;;;;;5053453;28;20404;-71
2022/03/17 09:11:54;;;;;;;1.20;1.17;;;20.80;61.50;;;;;;5050965;28;20398;-71
2022/03/17 09:14:21;;;;;;;0.70;0.70;;;20.90;61.20;;;;;;5053629;28;20407;-76
2022/03/17 09:16:47;;;;;;;9.13;0.90;;;21.20;60.80;;;;;;5053668;28;20507;-73
2022/03/17 09:19:13;;;;;;;0.63;0.63;;;21.10;59.70;;;;;;5052797;28;20420;-73
2022/03/17 09:21:39;;;;;;;0.40;0.40;;;21.00;59.10;;;;;;5051498;28;20409;-72
2022/03/17 09:24:05;;;;;;;1.17;1.17;;;20.60;59.10;;;;;;5051827;28;20228;-73
2022/03/17 09:26:31;;;;;;;0.60;0.60;;;20.50;59.60;;;;;;5051352;28;20448;-72
2022/03/17 09:28:58;;;;;;;0.30;0.30;;;20.60;59.50;;;;;;5053370;28;20961;-72
2022/03/17 09:31:23;;;;;;;0.63;0.63;;;20.40;59.50;;;;;;5056901;28;20407;-72
2022/03/17 09:33:49;;;;;;;0.30;0.30;;;20.30;59.10;;;;;;5057126;28;20458;-72
2022/03/17 09:36:16;;;;;;;0.57;0.57;;;20.10;59.30;;;;;;5057026;28;20196;-72
2022/03/17 09:38:43;;;;;;;0.30;0.30;;;19.80;60.20;;;;;;5057263;28;20401;-72
2022/03/17 09:41:25;;;;;;;0.30;0.30;;;20.00;61.00;;;;;;5056882;28;20499;-71
2022/03/17 09:43:53;;;;;;;0.30;0.30;;;20.10;60.10;;;;;;5054957;28;20419;-72
2022/03/17 09:46:21;;;;;;;0.30;0.30;;;20.10;59.70;;;;;;5056073;28;20452;-72
2022/03/17 09:48:52;;;;;;;0.63;0.63;;;20.20;59.10;;;;;;5056646;28;20402;-73
2022/03/17 09:51:21;;;;;;;0.30;0.30;;;20.20;58.80;;;;;;5054799;28;20411;-72
2022/03/17 09:53:47;;;;;;;0.30;0.30;;;19.90;58.40;;;;;;5056877;28;20410;-73
2022/03/17 09:56:13;;;;;;;0.53;0.53;;;20.00;58.90;;;;;;5055726;28;20437;-74
2022/03/17 09:58:39;;;;;;;0.30;0.30;;;19.80;59.00;;;;;;5055391;28;20168;-72
2022/03/17 10:01:06;;;;;;;0.40;0.40;;;19.70;59.60;;;;;;5056364;28;20270;-74
2022/03/17 10:03:34;;;;;;;1.23;1.23;;;19.70;59.50;;;;;;5056665;28;20170;-73
2022/03/17 10:06:06;;;;;;;0.30;0.30;;;19.40;59.60;;;;;;5056512;28;20421;-74
2022/03/17 10:08:33;;;;;;;0.30;0.30;;;19.20;60.80;;;;;;5055657;28;20492;-73
2022/03/17 10:10:59;;;;;;;0.30;0.30;;;19.20;60.70;;;;;;5054259;28;20439;-76
2022/03/17 10:13:26;;;;;;;0.63;0.63;;;19.20;60.20;;;;;;5056593;28;20393;-75
2022/03/17 10:16:09;;;;;;;0.67;0.67;;;19.50;59.90;;;;;;5055591;28;20477;-74
2022/03/17 10:18:37;;;;;;;0.30;0.30;;;19.90;59.50;;;;;;5054706;28;20415;-73
2022/03/17 10:21:11;;;;;;;0.80;0.80;;;20.20;58.40;;;;;;5056271;28;20435;-73
2022/03/17 10:24:06;;;;;;;0.30;0.30;;;20.00;58.50;;;;;;5054418;28;20408;-73
2022/03/17 10:26:42;;;;;;;0.50;0.50;;;19.60;59.10;;;;;;5050260;28;20469;-72
2022/03/17 10:29:13;;;;;;;0.30;0.30;;;19.50;59.60;;;;;;5050273;28;20420;-73
2022/03/17 10:31:59;;;;;;;0.30;0.30;;;19.60;60.20;;;;;;5054349;28;20458;-73
2022/03/17 10:34:34;;;;;;;0.30;0.30;;;19.80;59.50;;;;;;5056617;28;20399;-74
2022/03/17 10:37:13;;;;;;;0.60;0.60;;;19.80;59.40;;;;;;5056549;28;20868;-73
2022/03/17 10:39:52;;;;;;;0.40;0.40;;;20.00;58.80;;;;;;5056386;28;20886;-72
2022/03/17 10:42:23;;;;;;;0.30;0.30;;;20.30;58.80;;;;;;5055801;28;20462;-73
2022/03/17 10:44:50;;;;;;;0.30;0.30;;;20.30;58.00;;;;;;5053741;28;20446;-74
2022/03/17 10:47:28;;;;;;;1.17;1.17;;;20.20;57.90;;;;;;5056237;28;20499;-73
2022/03/17 10:50:00;;;;;;;0.30;0.30;;;20.10;59.50;;;;;;5056093;28;20437;-72
2022/03/17 10:52:51;;;;;;;0.30;0.30;;;20.10;60.10;;;;;;5055642;28;20414;-73
2022/03/17 10:55:36;;;;;;;0.43;0.43;;;20.00;61.00;;;;;;5055997;28;20414;-73
2022/03/17 10:58:15;;;;;;;0.30;0.30;;;19.40;62.10;;;;;;5055683;28;20399;-73
2022/03/17 11:00:58;;;;;;;0.30;0.30;;;19.20;62.40;;;;;;5055353;28;20428;-73
2022/03/17 11:03:24;;;;;;;0.40;0.40;;;18.90;63.90;;;;;;5055481;28;20409;-72
2022/03/17 11:05:51;;;;;;;0.30;0.30;;;18.70;64.50;;;;;;5055553;28;20421;-73
2022/03/17 11:08:21;;;;;;;0.30;0.30;;;18.90;64.70;;;;;;5055404;28;20455;-73
2022/03/17 11:10:47;;;;;;;0.40;0.40;;;18.80;64.90;;;;;;5055245;28;20406;-73
2022/03/17 11:13:12;;;;;;;2.10;1.90;;;18.40;65.70;;;;;;5055279;28;20487;-73
2022/03/17 11:15:48;;;;;;;0.30;0.30;;;18.00;66.70;;;;;;5055162;28;20511;-73
2022/03/17 11:18:19;;;;;;;0.40;0.40;;;17.80;67.70;;;;;;5055456;28;20177;-73
2022/03/17 11:20:45;;;;;;;0.67;0.67;;;17.60;68.40;;;;;;5054948;28;20452;-73
2022/03/17 11:23:20;;;;;;;0.30;0.30;;;17.20;69.70;;;;;;5055215;28;20413;-73
2022/03/17 11:25:54;;;;;;;0.63;0.63;;;16.80;71.50;;;;;;5055071;28;20428;-72
2022/03/17 11:28:37;;;;;;;0.30;0.30;;;17.00;72.00;;;;;;5055159;28;20453;-73
2022/03/17 11:31:05;;;;;;;0.30;0.30;;;17.00;71.90;;;;;;5055031;28;20414;-74
2022/03/17 11:33:31;;;;;;;0.30;0.30;;;17.00;72.10;;;;;;5055149;28;20895;-72
2022/03/17 11:36:01;;;;;;;0.30;0.30;;;16.90;72.60;;;;;;5054908;28;20424;-72
2022/03/17 11:38:29;;;;;;;0.40;0.40;;;16.60;73.80;;;;;;5054730;28;20773;-72
2022/03/17 11:41:15;;;;;;;0.80;0.80;;;16.60;74.40;;;;;;5053343;28;20876;-73
2022/03/17 11:43:45;;;;;;;0.40;0.40;;;16.50;74.90;;;;;;5054995;28;20409;-72
2022/03/17 11:46:19;;;;;;;2.73;2.63;;;16.30;75.80;;;;;;5054487;28;20432;-74
2022/03/17 11:48:47;;;;;;;0.40;0.40;;;16.30;76.60;;;;;;5054589;28;20914;-73
2022/03/17 11:51:15;;;;;;;0.30;0.30;;;16.20;76.80;;;;;;5054513;28;20457;-73
2022/03/17 11:53:53;;;;;;;0.50;0.50;;;16.20;77.60;;;;;;5053846;28;20397;-73
2022/03/17 11:56:42;;;;;;;0.60;0.60;;;16.30;77.80;;;;;;5054534;28;20425;-73
2022/03/17 11:59:16;;;;;;;0.50;0.50;;;16.60;76.80;;;;;;5054675;28;20458;-73
2022/03/17 12:01:47;;;;;;;0.30;0.30;;;16.70;76.50;;;;;;5054129;28;20568;-72
2022/03/17 12:04:33;;;;;;;0.80;0.80;;;16.80;76.70;;;;;;5054345;28;20400;-73
2022/03/17 12:07:09;;;;;;;1.87;0.67;;;16.90;76.00;;;;;;5054326;28;20449;-72
2022/03/17 12:09:35;;;;;;;0.30;0.30;;;16.90;75.90;;;;;;5054408;28;20534;-73
2022/03/17 12:12:03;;;;;;;0.47;0.47;;;17.10;75.70;;;;;;5053967;28;20456;-73
2022/03/17 12:14:29;;;;;;;0.70;0.70;;;17.30;74.90;;;;;;5054183;28;20411;-72
2022/03/17 12:16:56;;;;;;;0.40;0.40;;;17.20;75.80;;;;;;5052742;28;20436;-72
2022/03/17 12:19:48;;;;;;;0.40;0.40;;;17.50;75.40;;;;;;5054160;28;20189;-73
2022/03/17 12:22:32;;;;;;;0.30;0.30;;;17.30;74.90;;;;;;5053966;28;20822;-72
2022/03/17 12:25:19;;;;;;;0.97;0.97;;;17.30;74.50;;;;;;5053900;28;20424;-73
2022/03/17 12:27:51;;;;;;;0.50;0.50;;;17.00;75.80;;;;;;5053950;28;20439;-74
2022/03/17 12:30:19;;;;;;;0.83;0.83;;;17.10;76.40;;;;;;5053966;28;20401;-73
2022/03/17 12:32:51;;;;;;;0.50;0.50;;;17.00;76.20;;;;;;5054254;28;20404;-73
2022/03/17 12:35:20;;;;;;;0.30;0.30;;;17.00;76.20;;;;;;5053764;28;20515;-73
2022/03/17 12:37:46;;;;;;;0.50;0.50;;;17.00;76.10;;;;;;5053904;28;20428;-74
2022/03/17 12:40:13;;;;;;;0.30;0.30;;;16.80;76.30;;;;;;5053701;28;20766;-72
2022/03/17 12:42:41;;;;;;;0.40;0.40;;;16.70;76.30;;;;;;5053939;28;20404;-72
2022/03/17 12:45:18;;;;;;;0.30;0.30;;;16.80;76.10;;;;;;5053725;28;20421;-73
2022/03/17 12:47:56;;;;;;;0.30;0.30;;;17.10;75.80;;;;;;5052976;28;20456;-73
2022/03/17 12:50:22;;;;;;;0.30;0.30;;;17.20;75.40;;;;;;5053597;28;20409;-73
2022/03/17 12:52:49;;;;;;;0.30;0.30;;;17.40;75.40;;;;;;5053634;28;20455;-72
2022/03/17 12:55:17;;;;;;;0.30;0.30;;;17.70;75.60;;;;;;5053612;28;20773;-73
2022/03/17 12:57:43;;;;;;;3.03;2.73;;;17.90;73.80;;;;;;5053192;28;20995;-73
2022/03/17 13:00:12;;;;;;;0.40;0.40;;;18.10;73.20;;;;;;5053000;28;20436;-73
2022/03/17 13:02:47;;;;;;;1.27;0.70;;;18.30;72.80;;;;;;5053554;28;20194;-73
2022/03/17 13:08:00;;;;;;;6.83;0.93;;;18.70;71.20;;;;;;5053415;28;20606;-73
2022/03/17 13:10:27;;;;;;;0.50;0.50;;;18.90;70.40;;;;;;5053052;28;20404;-72